メインページ
METAR-TAF:

METAR-TAF

空港 :

テヘラン, イラン

メヘラーバード国際空港

緯度: 35-41N, 経度: 051-21E, 海抜: 1204m

現時点の気象観測

当レポートは38分前の23:00(UTC)に作成
無風
気温 21°C
湿度 26%
気圧 1020 hPa
視程10km以上
1,500メートル以下は雲なし、積乱雲なし

METAR: OIII 232300Z 00000KT CAVOK 21/01 Q1019 A3011 NOSIG

時間: 03:08 (23:38 UTC)

予報

当レポートは6時間38分前の17:00(UTC)に作成
予報は23日の 18時(UTC)から 24日の 24時(UTC)まで有効
の風 6kt
視程10km以上
1,500メートル以下は雲なし、積乱雲なし
24日の 04時(UTC)から 24日の 06時(UTC)まで徐々に
南/南東の風 8kt
24日の 16時(UTC)から 24日の 18時(UTC)まで徐々に
北/北東の風 6kt

TAF: OIII 231700Z 2318/2424 36003MPS CAVOK BECMG 2404/2406 16004MPS BECMG 2416/2418 02003MPS

4,000以上の空港の気象観測と天気予報(METAR報とTAF報)

利用可能な観測所は地図上に黄色い丸と赤い丸で示す。

丸の上にカーソルを重ねると観測所名を参照できる。

次にクリックすると気象観測と天気予報を参照できる。

マップの切り替え:黒色「×」印の緑ボタンをクリックして拡大、「-」印の緑ボタンをクリックして縮小、緑色の三角印をクリックして隣りの地図に切り替え


METAR-TAF: